sensor_id;sensor_type;location;lat;lon;timestamp;temperature;humidity
14755;DHT22;7469;50.906;6.952;2022-09-28T00:00:58;9.20;99.90
14755;DHT22;7469;50.906;6.952;2022-09-28T00:03:27;9.20;99.90
14755;DHT22;7469;50.906;6.952;2022-09-28T00:06:00;9.20;99.90
14755;DHT22;7469;50.906;6.952;2022-09-28T00:08:28;9.20;99.90
14755;DHT22;7469;50.906;6.952;2022-09-28T00:10:58;9.30;99.90
14755;DHT22;7469;50.906;6.952;2022-09-28T00:13:26;9.30;99.90
14755;DHT22;7469;50.906;6.952;2022-09-28T00:15:59;9.30;99.90
14755;DHT22;7469;50.906;6.952;2022-09-28T00:18:27;9.30;99.90
14755;DHT22;7469;50.906;6.952;2022-09-28T00:20:59;9.20;99.90
14755;DHT22;7469;50.906;6.952;2022-09-28T00:23:27;9.30;99.90
14755;DHT22;7469;50.906;6.952;2022-09-28T00:25:59;9.20;99.90
14755;DHT22;7469;50.906;6.952;2022-09-28T00:28:30;9.30;99.90
14755;DHT22;7469;50.906;6.952;2022-09-28T00:30:58;9.20;99.90
14755;DHT22;7469;50.906;6.952;2022-09-28T00:33:26;9.30;99.90
14755;DHT22;7469;50.906;6.952;2022-09-28T00:35:55;9.30;99.90
14755;DHT22;7469;50.906;6.952;2022-09-28T00:38:27;9.30;99.90
14755;DHT22;7469;50.906;6.952;2022-09-28T00:40:55;9.30;99.90
14755;DHT22;7469;50.906;6.952;2022-09-28T00:43:25;9.30;99.90
14755;DHT22;7469;50.906;6.952;2022-09-28T00:45:59;9.30;99.90
14755;DHT22;7469;50.906;6.952;2022-09-28T00:48:31;9.30;99.90
14755;DHT22;7469;50.906;6.952;2022-09-28T00:51:02;9.30;99.90
14755;DHT22;7469;50.906;6.952;2022-09-28T00:53:34;9.30;99.90
14755;DHT22;7469;50.906;6.952;2022-09-28T00:56:05;9.30;99.90
14755;DHT22;7469;50.906;6.952;2022-09-28T00:58:43;9.30;99.90
14755;DHT22;7469;50.906;6.952;2022-09-28T01:01:13;9.30;99.90
14755;DHT22;7469;50.906;6.952;2022-09-28T01:03:41;9.30;99.90
14755;DHT22;7469;50.906;6.952;2022-09-28T01:06:15;9.30;99.90
14755;DHT22;7469;50.906;6.952;2022-09-28T01:08:44;9.30;99.90
14755;DHT22;7469;50.906;6.952;2022-09-28T01:11:16;9.30;99.90
14755;DHT22;7469;50.906;6.952;2022-09-28T01:13:45;9.30;99.90
14755;DHT22;7469;50.906;6.952;2022-09-28T01:16:22;9.30;99.90
14755;DHT22;7469;50.906;6.952;2022-09-28T01:18:58;9.30;99.90
14755;DHT22;7469;50.906;6.952;2022-09-28T01:21:28;9.30;99.90
14755;DHT22;7469;50.906;6.952;2022-09-28T01:24:26;9.20;99.90
14755;DHT22;7469;50.906;6.952;2022-09-28T01:27:11;9.20;99.90
14755;DHT22;7469;50.906;6.952;2022-09-28T01:29:45;9.20;99.90
14755;DHT22;7469;50.906;6.952;2022-09-28T01:32:22;9.20;99.90
14755;DHT22;7469;50.906;6.952;2022-09-28T01:34:56;9.20;99.90
14755;DHT22;7469;50.906;6.952;2022-09-28T01:37:31;9.20;99.90
14755;DHT22;7469;50.906;6.952;2022-09-28T01:40:01;9.20;99.90
14755;DHT22;7469;50.906;6.952;2022-09-28T01:42:34;9.20;99.90
14755;DHT22;7469;50.906;6.952;2022-09-28T01:45:06;9.10;99.90
14755;DHT22;7469;50.906;6.952;2022-09-28T01:47:38;9.10;99.90
14755;DHT22;7469;50.906;6.952;2022-09-28T01:50:10;9.10;99.90
14755;DHT22;7469;50.906;6.952;2022-09-28T01:52:44;9.10;99.90
14755;DHT22;7469;50.906;6.952;2022-09-28T01:55:18;9.10;99.90
14755;DHT22;7469;50.906;6.952;2022-09-28T01:57:51;9.10;99.90
14755;DHT22;7469;50.906;6.952;2022-09-28T02:00:23;9.10;99.90
14755;DHT22;7469;50.906;6.952;2022-09-28T02:02:56;9.10;99.90
14755;DHT22;7469;50.906;6.952;2022-09-28T02:05:29;9.10;99.90
14755;DHT22;7469;50.906;6.952;2022-09-28T02:08:03;9.10;99.90
14755;DHT22;7469;50.906;6.952;2022-09-28T02:10:37;9.10;99.90
14755;DHT22;7469;50.906;6.952;2022-09-28T02:13:11;9.10;99.90
14755;DHT22;7469;50.906;6.952;2022-09-28T02:15:44;9.10;99.90
14755;DHT22;7469;50.906;6.952;2022-09-28T02:18:13;9.10;99.90
14755;DHT22;7469;50.906;6.952;2022-09-28T02:20:43;9.10;99.90
14755;DHT22;7469;50.906;6.952;2022-09-28T02:23:14;9.10;99.90
14755;DHT22;7469;50.906;6.952;2022-09-28T02:25:46;9.10;99.90
14755;DHT22;7469;50.906;6.952;2022-09-28T02:28:16;9.10;99.90
14755;DHT22;7469;50.906;6.952;2022-09-28T02:30:44;9.10;99.90
14755;DHT22;7469;50.906;6.952;2022-09-28T02:33:15;9.10;99.90
14755;DHT22;7469;50.906;6.952;2022-09-28T02:35:45;9.20;99.90
14755;DHT22;7469;50.906;6.952;2022-09-28T02:38:13;9.20;99.90
14755;DHT22;7469;50.906;6.952;2022-09-28T02:40:44;9.20;99.90
14755;DHT22;7469;50.906;6.952;2022-09-28T02:43:21;9.20;99.90
14755;DHT22;7469;50.906;6.952;2022-09-28T02:45:58;9.20;99.90
14755;DHT22;7469;50.906;6.952;2022-09-28T02:48:39;9.20;99.90
14755;DHT22;7469;50.906;6.952;2022-09-28T02:51:23;9.20;99.90
14755;DHT22;7469;50.906;6.952;2022-09-28T02:54:20;9.20;99.90
14755;DHT22;7469;50.906;6.952;2022-09-28T02:57:04;9.20;99.90
14755;DHT22;7469;50.906;6.952;2022-09-28T02:59:46;9.20;99.90
14755;DHT22;7469;50.906;6.952;2022-09-28T03:02:22;9.20;99.90
14755;DHT22;7469;50.906;6.952;2022-09-28T03:05:03;9.30;99.90
14755;DHT22;7469;50.906;6.952;2022-09-28T03:07:35;9.30;99.90
14755;DHT22;7469;50.906;6.952;2022-09-28T03:10:09;9.30;99.90
14755;DHT22;7469;50.906;6.952;2022-09-28T03:12:41;9.30;99.90
14755;DHT22;7469;50.906;6.952;2022-09-28T03:15:13;9.30;99.90
14755;DHT22;7469;50.906;6.952;2022-09-28T03:17:45;9.30;99.90
14755;DHT22;7469;50.906;6.952;2022-09-28T03:20:14;9.40;99.90
14755;DHT22;7469;50.906;6.952;2022-09-28T03:22:42;9.30;99.90
14755;DHT22;7469;50.906;6.952;2022-09-28T03:25:30;9.30;99.90
14755;DHT22;7469;50.906;6.952;2022-09-28T03:27:58;9.30;99.90
14755;DHT22;7469;50.906;6.952;2022-09-28T03:30:27;9.30;99.90
14755;DHT22;7469;50.906;6.952;2022-09-28T03:32:58;9.30;99.90
14755;DHT22;7469;50.906;6.952;2022-09-28T03:35:28;9.30;99.90
14755;DHT22;7469;50.906;6.952;2022-09-28T03:37:56;9.30;99.90
14755;DHT22;7469;50.906;6.952;2022-09-28T03:40:24;9.30;99.90
14755;DHT22;7469;50.906;6.952;2022-09-28T03:42:52;9.30;99.90
14755;DHT22;7469;50.906;6.952;2022-09-28T03:45:20;9.30;99.90
14755;DHT22;7469;50.906;6.952;2022-09-28T03:47:50;9.40;99.90
14755;DHT22;7469;50.906;6.952;2022-09-28T03:50:18;9.40;99.90
14755;DHT22;7469;50.906;6.952;2022-09-28T03:52:45;9.40;99.90
14755;DHT22;7469;50.906;6.952;2022-09-28T03:55:14;9.40;99.90
14755;DHT22;7469;50.906;6.952;2022-09-28T03:57:42;9.40;99.90
14755;DHT22;7469;50.906;6.952;2022-09-28T04:00:11;9.40;99.90
14755;DHT22;7469;50.906;6.952;2022-09-28T04:02:39;9.40;99.90
14755;DHT22;7469;50.906;6.952;2022-09-28T04:05:09;9.40;99.90
14755;DHT22;7469;50.906;6.952;2022-09-28T04:07:37;9.40;99.90
14755;DHT22;7469;50.906;6.952;2022-09-28T04:10:05;9.40;99.90
14755;DHT22;7469;50.906;6.952;2022-09-28T04:12:33;9.50;99.90
14755;DHT22;7469;50.906;6.952;2022-09-28T04:15:01;9.50;99.90
14755;DHT22;7469;50.906;6.952;2022-09-28T04:17:29;9.50;99.90
14755;DHT22;7469;50.906;6.952;2022-09-28T04:20:04;9.50;99.90
14755;DHT22;7469;50.906;6.952;2022-09-28T04:22:34;9.50;99.90
14755;DHT22;7469;50.906;6.952;2022-09-28T04:25:04;9.50;99.90
14755;DHT22;7469;50.906;6.952;2022-09-28T04:27:32;9.50;99.90
14755;DHT22;7469;50.906;6.952;2022-09-28T04:30:17;9.50;99.90
14755;DHT22;7469;50.906;6.952;2022-09-28T04:32:45;9.50;99.90
14755;DHT22;7469;50.906;6.952;2022-09-28T04:35:14;9.50;99.90
14755;DHT22;7469;50.906;6.952;2022-09-28T04:37:43;9.50;99.90
14755;DHT22;7469;50.906;6.952;2022-09-28T04:40:11;9.50;99.90
14755;DHT22;7469;50.906;6.952;2022-09-28T04:42:39;9.40;99.90
14755;DHT22;7469;50.906;6.952;2022-09-28T04:45:08;9.40;99.90
14755;DHT22;7469;50.906;6.952;2022-09-28T04:47:36;9.40;99.90
14755;DHT22;7469;50.906;6.952;2022-09-28T04:50:04;9.40;99.90
14755;DHT22;7469;50.906;6.952;2022-09-28T04:52:35;9.40;99.90
14755;DHT22;7469;50.906;6.952;2022-09-28T04:55:05;9.40;99.90
14755;DHT22;7469;50.906;6.952;2022-09-28T04:57:33;9.40;99.90
14755;DHT22;7469;50.906;6.952;2022-09-28T05:00:02;9.40;99.90
14755;DHT22;7469;50.906;6.952;2022-09-28T05:02:30;9.40;99.90
14755;DHT22;7469;50.906;6.952;2022-09-28T05:04:59;9.40;99.90
14755;DHT22;7469;50.906;6.952;2022-09-28T05:07:27;9.40;99.90
14755;DHT22;7469;50.906;6.952;2022-09-28T05:09:56;9.40;99.90
14755;DHT22;7469;50.906;6.952;2022-09-28T05:12:26;9.40;99.90
14755;DHT22;7469;50.906;6.952;2022-09-28T05:14:54;9.40;99.90
14755;DHT22;7469;50.906;6.952;2022-09-28T05:17:22;9.40;99.90
14755;DHT22;7469;50.906;6.952;2022-09-28T05:19:50;9.40;99.90
14755;DHT22;7469;50.906;6.952;2022-09-28T05:22:18;9.30;99.90
14755;DHT22;7469;50.906;6.952;2022-09-28T05:24:46;9.30;99.90
14755;DHT22;7469;50.906;6.952;2022-09-28T05:27:14;9.30;99.90
14755;DHT22;7469;50.906;6.952;2022-09-28T05:29:43;9.30;99.90
14755;DHT22;7469;50.906;6.952;2022-09-28T05:32:11;9.30;99.90
14755;DHT22;7469;50.906;6.952;2022-09-28T05:34:39;9.30;99.90
14755;DHT22;7469;50.906;6.952;2022-09-28T05:37:07;9.30;99.90
14755;DHT22;7469;50.906;6.952;2022-09-28T05:39:34;9.30;99.90
14755;DHT22;7469;50.906;6.952;2022-09-28T05:42:02;9.30;99.90
14755;DHT22;7469;50.906;6.952;2022-09-28T05:44:30;9.30;99.90
14755;DHT22;7469;50.906;6.952;2022-09-28T05:46:59;9.40;99.90
14755;DHT22;7469;50.906;6.952;2022-09-28T05:49:27;9.40;99.90
14755;DHT22;7469;50.906;6.952;2022-09-28T05:51:57;9.40;99.90
14755;DHT22;7469;50.906;6.952;2022-09-28T05:54:25;9.40;99.90
14755;DHT22;7469;50.906;6.952;2022-09-28T05:56:53;9.40;99.90
14755;DHT22;7469;50.906;6.952;2022-09-28T05:59:21;9.40;99.90
14755;DHT22;7469;50.906;6.952;2022-09-28T06:01:48;9.40;99.90
14755;DHT22;7469;50.906;6.952;2022-09-28T06:04:18;9.40;99.90
14755;DHT22;7469;50.906;6.952;2022-09-28T06:06:46;9.50;99.90
14755;DHT22;7469;50.906;6.952;2022-09-28T06:09:14;9.50;99.90
14755;DHT22;7469;50.906;6.952;2022-09-28T06:11:42;9.50;99.90
14755;DHT22;7469;50.906;6.952;2022-09-28T06:14:10;9.50;99.90
14755;DHT22;7469;50.906;6.952;2022-09-28T06:16:39;9.50;99.90
14755;DHT22;7469;50.906;6.952;2022-09-28T06:19:10;9.50;99.90
14755;DHT22;7469;50.906;6.952;2022-09-28T06:21:39;9.50;99.90
14755;DHT22;7469;50.906;6.952;2022-09-28T06:24:07;9.60;99.90
14755;DHT22;7469;50.906;6.952;2022-09-28T06:26:35;9.60;99.90
14755;DHT22;7469;50.906;6.952;2022-09-28T06:29:06;9.60;99.90
14755;DHT22;7469;50.906;6.952;2022-09-28T06:31:34;9.60;99.90
14755;DHT22;7469;50.906;6.952;2022-09-28T06:34:02;9.70;99.90
14755;DHT22;7469;50.906;6.952;2022-09-28T06:36:30;9.70;99.90
14755;DHT22;7469;50.906;6.952;2022-09-28T06:38:59;9.70;99.90
14755;DHT22;7469;50.906;6.952;2022-09-28T06:41:27;9.70;99.90
14755;DHT22;7469;50.906;6.952;2022-09-28T06:43:55;9.70;99.90
14755;DHT22;7469;50.906;6.952;2022-09-28T06:46:23;9.70;99.90
14755;DHT22;7469;50.906;6.952;2022-09-28T06:48:51;9.70;99.90
14755;DHT22;7469;50.906;6.952;2022-09-28T06:51:20;9.80;99.90
14755;DHT22;7469;50.906;6.952;2022-09-28T06:53:48;9.80;99.90
14755;DHT22;7469;50.906;6.952;2022-09-28T06:56:20;9.80;99.90
14755;DHT22;7469;50.906;6.952;2022-09-28T06:58:48;9.90;99.90
14755;DHT22;7469;50.906;6.952;2022-09-28T07:01:16;9.90;99.90
14755;DHT22;7469;50.906;6.952;2022-09-28T07:03:44;10.00;99.90
14755;DHT22;7469;50.906;6.952;2022-09-28T07:06:12;10.00;99.90
14755;DHT22;7469;50.906;6.952;2022-09-28T07:08:40;10.00;99.90
14755;DHT22;7469;50.906;6.952;2022-09-28T07:11:08;10.10;99.90
14755;DHT22;7469;50.906;6.952;2022-09-28T07:13:38;10.10;99.90
14755;DHT22;7469;50.906;6.952;2022-09-28T07:16:17;10.20;99.90
14755;DHT22;7469;50.906;6.952;2022-09-28T07:18:52;10.20;99.90
14755;DHT22;7469;50.906;6.952;2022-09-28T07:21:20;10.20;99.90
14755;DHT22;7469;50.906;6.952;2022-09-28T07:23:56;10.20;99.90
14755;DHT22;7469;50.906;6.952;2022-09-28T07:26:25;10.30;99.90
14755;DHT22;7469;50.906;6.952;2022-09-28T07:28:54;10.40;99.90
14755;DHT22;7469;50.906;6.952;2022-09-28T07:31:22;10.40;99.90
14755;DHT22;7469;50.906;6.952;2022-09-28T07:33:51;10.40;99.90
14755;DHT22;7469;50.906;6.952;2022-09-28T07:36:21;10.40;99.90
14755;DHT22;7469;50.906;6.952;2022-09-28T07:38:49;10.50;99.90
14755;DHT22;7469;50.906;6.952;2022-09-28T07:41:17;10.50;99.90
14755;DHT22;7469;50.906;6.952;2022-09-28T07:43:53;10.50;99.90
14755;DHT22;7469;50.906;6.952;2022-09-28T07:46:21;10.60;99.90
14755;DHT22;7469;50.906;6.952;2022-09-28T07:48:49;10.60;99.90
14755;DHT22;7469;50.906;6.952;2022-09-28T07:51:18;10.70;99.90
14755;DHT22;7469;50.906;6.952;2022-09-28T07:53:46;10.70;99.90
14755;DHT22;7469;50.906;6.952;2022-09-28T07:56:14;10.70;99.90
14755;DHT22;7469;50.906;6.952;2022-09-28T07:58:46;10.80;99.90
14755;DHT22;7469;50.906;6.952;2022-09-28T08:01:16;10.80;99.90
14755;DHT22;7469;50.906;6.952;2022-09-28T08:03:45;11.00;99.90
14755;DHT22;7469;50.906;6.952;2022-09-28T08:06:14;11.10;99.90
14755;DHT22;7469;50.906;6.952;2022-09-28T08:08:43;11.20;99.90
14755;DHT22;7469;50.906;6.952;2022-09-28T08:11:12;11.30;99.90
14755;DHT22;7469;50.906;6.952;2022-09-28T08:13:41;11.40;99.90
14755;DHT22;7469;50.906;6.952;2022-09-28T08:16:10;11.50;99.90
14755;DHT22;7469;50.906;6.952;2022-09-28T08:18:39;11.50;99.90
14755;DHT22;7469;50.906;6.952;2022-09-28T08:21:09;11.60;99.90
14755;DHT22;7469;50.906;6.952;2022-09-28T08:23:55;11.60;99.90
14755;DHT22;7469;50.906;6.952;2022-09-28T08:26:23;11.60;99.90
14755;DHT22;7469;50.906;6.952;2022-09-28T08:28:51;11.60;99.90
14755;DHT22;7469;50.906;6.952;2022-09-28T08:31:19;11.60;99.90
14755;DHT22;7469;50.906;6.952;2022-09-28T08:33:48;11.70;99.90
14755;DHT22;7469;50.906;6.952;2022-09-28T08:36:19;11.70;99.90
14755;DHT22;7469;50.906;6.952;2022-09-28T08:38:47;11.70;99.90
14755;DHT22;7469;50.906;6.952;2022-09-28T08:41:19;11.90;99.90
14755;DHT22;7469;50.906;6.952;2022-09-28T08:44:07;12.00;99.90
14755;DHT22;7469;50.906;6.952;2022-09-28T08:46:40;12.20;99.90
14755;DHT22;7469;50.906;6.952;2022-09-28T08:49:16;12.30;99.90
14755;DHT22;7469;50.906;6.952;2022-09-28T08:51:56;12.30;99.90
14755;DHT22;7469;50.906;6.952;2022-09-28T08:54:35;12.30;99.90
14755;DHT22;7469;50.906;6.952;2022-09-28T08:57:09;12.30;99.90
14755;DHT22;7469;50.906;6.952;2022-09-28T08:59:44;12.30;99.90
14755;DHT22;7469;50.906;6.952;2022-09-28T09:02:17;12.40;99.90
14755;DHT22;7469;50.906;6.952;2022-09-28T09:04:48;12.50;99.90
14755;DHT22;7469;50.906;6.952;2022-09-28T09:07:41;12.60;99.90
14755;DHT22;7469;50.906;6.952;2022-09-28T09:10:31;12.70;99.90
14755;DHT22;7469;50.906;6.952;2022-09-28T09:13:05;12.90;99.90
14755;DHT22;7469;50.906;6.952;2022-09-28T09:15:43;13.00;99.90
14755;DHT22;7469;50.906;6.952;2022-09-28T09:18:20;13.10;99.90
14755;DHT22;7469;50.906;6.952;2022-09-28T09:20:54;13.20;99.90
14755;DHT22;7469;50.906;6.952;2022-09-28T09:23:33;13.30;99.90
14755;DHT22;7469;50.906;6.952;2022-09-28T09:26:09;13.40;99.90
14755;DHT22;7469;50.906;6.952;2022-09-28T09:31:54;13.80;99.90
14755;DHT22;7469;50.906;6.952;2022-09-28T09:34:50;13.80;99.90
14755;DHT22;7469;50.906;6.952;2022-09-28T09:37:28;13.90;99.90
14755;DHT22;7469;50.906;6.952;2022-09-28T09:40:21;13.90;99.90
14755;DHT22;7469;50.906;6.952;2022-09-28T09:43:01;13.90;99.90
14755;DHT22;7469;50.906;6.952;2022-09-28T09:45:43;13.90;99.90
14755;DHT22;7469;50.906;6.952;2022-09-28T09:48:16;13.90;99.90
14755;DHT22;7469;50.906;6.952;2022-09-28T09:50:48;14.10;99.90
14755;DHT22;7469;50.906;6.952;2022-09-28T09:53:23;14.20;99.90
14755;DHT22;7469;50.906;6.952;2022-09-28T09:55:57;14.30;99.90
14755;DHT22;7469;50.906;6.952;2022-09-28T09:58:30;14.40;99.90
14755;DHT22;7469;50.906;6.952;2022-09-28T10:01:06;14.50;99.90
14755;DHT22;7469;50.906;6.952;2022-09-28T10:03:38;14.50;99.90
14755;DHT22;7469;50.906;6.952;2022-09-28T10:06:11;14.60;99.90
14755;DHT22;7469;50.906;6.952;2022-09-28T10:08:45;14.80;99.90
14755;DHT22;7469;50.906;6.952;2022-09-28T10:11:17;15.00;99.90
14755;DHT22;7469;50.906;6.952;2022-09-28T10:13:47;15.20;99.90
14755;DHT22;7469;50.906;6.952;2022-09-28T10:16:17;15.30;99.90
14755;DHT22;7469;50.906;6.952;2022-09-28T10:18:46;15.30;99.90
14755;DHT22;7469;50.906;6.952;2022-09-28T10:21:16;15.30;99.90
14755;DHT22;7469;50.906;6.952;2022-09-28T10:23:49;15.30;99.90
14755;DHT22;7469;50.906;6.952;2022-09-28T10:26:23;15.20;99.90
14755;DHT22;7469;50.906;6.952;2022-09-28T10:28:54;15.20;99.90
14755;DHT22;7469;50.906;6.952;2022-09-28T10:31:39;15.10;99.90
14755;DHT22;7469;50.906;6.952;2022-09-28T10:34:10;15.10;99.90
14755;DHT22;7469;50.906;6.952;2022-09-28T10:37:09;15.20;99.90
14755;DHT22;7469;50.906;6.952;2022-09-28T10:39:44;15.60;99.90
14755;DHT22;7469;50.906;6.952;2022-09-28T10:42:18;16.40;99.90
14755;DHT22;7469;50.906;6.952;2022-09-28T10:44:50;18.10;99.90
14755;DHT22;7469;50.906;6.952;2022-09-28T10:47:21;20.30;99.90
14755;DHT22;7469;50.906;6.952;2022-09-28T10:49:51;22.10;99.90
14755;DHT22;7469;50.906;6.952;2022-09-28T10:52:35;23.50;99.90
14755;DHT22;7469;50.906;6.952;2022-09-28T10:55:26;24.70;96.40
14755;DHT22;7469;50.906;6.952;2022-09-28T10:57:54;24.50;92.60
14755;DHT22;7469;50.906;6.952;2022-09-28T11:00:31;24.20;90.40
14755;DHT22;7469;50.906;6.952;2022-09-28T11:03:00;23.80;89.40
14755;DHT22;7469;50.906;6.952;2022-09-28T11:05:29;23.40;87.90
14755;DHT22;7469;50.906;6.952;2022-09-28T11:07:58;23.20;87.60
14755;DHT22;7469;50.906;6.952;2022-09-28T11:10:29;22.90;86.30
14755;DHT22;7469;50.906;6.952;2022-09-28T11:12:59;22.90;87.70
14755;DHT22;7469;50.906;6.952;2022-09-28T11:15:29;23.90;85.40
14755;DHT22;7469;50.906;6.952;2022-09-28T11:18:17;24.80;79.90
14755;DHT22;7469;50.906;6.952;2022-09-28T11:20:45;24.70;75.30
14755;DHT22;7469;50.906;6.952;2022-09-28T11:23:18;24.00;72.50
14755;DHT22;7469;50.906;6.952;2022-09-28T11:26:00;23.30;73.70
14755;DHT22;7469;50.906;6.952;2022-09-28T11:28:30;22.40;75.60
14755;DHT22;7469;50.906;6.952;2022-09-28T11:31:00;21.70;78.00
14755;DHT22;7469;50.906;6.952;2022-09-28T11:33:31;20.80;80.40
14755;DHT22;7469;50.906;6.952;2022-09-28T11:36:08;20.10;83.00
14755;DHT22;7469;50.906;6.952;2022-09-28T11:38:45;19.60;85.70
14755;DHT22;7469;50.906;6.952;2022-09-28T11:41:28;19.20;88.40
14755;DHT22;7469;50.906;6.952;2022-09-28T11:44:19;18.90;90.50
14755;DHT22;7469;50.906;6.952;2022-09-28T11:46:58;18.90;91.30
14755;DHT22;7469;50.906;6.952;2022-09-28T11:49:34;18.80;91.60
14755;DHT22;7469;50.906;6.952;2022-09-28T11:52:09;18.70;92.10
14755;DHT22;7469;50.906;6.952;2022-09-28T11:54:43;18.70;92.30
14755;DHT22;7469;50.906;6.952;2022-09-28T11:57:19;18.70;92.60
14755;DHT22;7469;50.906;6.952;2022-09-28T11:59:55;18.50;92.90
14755;DHT22;7469;50.906;6.952;2022-09-28T12:02:28;18.40;93.00
14755;DHT22;7469;50.906;6.952;2022-09-28T12:05:08;18.20;93.20
14755;DHT22;7469;50.906;6.952;2022-09-28T12:07:46;18.00;93.70
14755;DHT22;7469;50.906;6.952;2022-09-28T12:10:18;17.70;94.00
14755;DHT22;7469;50.906;6.952;2022-09-28T12:12:52;17.60;94.60
14755;DHT22;7469;50.906;6.952;2022-09-28T12:15:24;17.50;95.20
14755;DHT22;7469;50.906;6.952;2022-09-28T12:17:56;17.50;95.50
14755;DHT22;7469;50.906;6.952;2022-09-28T12:20:29;17.40;95.80
14755;DHT22;7469;50.906;6.952;2022-09-28T12:23:02;17.40;96.10
14755;DHT22;7469;50.906;6.952;2022-09-28T12:25:39;17.40;96.40
14755;DHT22;7469;50.906;6.952;2022-09-28T12:28:17;17.20;96.70
14755;DHT22;7469;50.906;6.952;2022-09-28T12:30:50;17.20;96.90
14755;DHT22;7469;50.906;6.952;2022-09-28T12:33:19;17.10;97.10
14755;DHT22;7469;50.906;6.952;2022-09-28T12:36:01;17.00;97.30
14755;DHT22;7469;50.906;6.952;2022-09-28T12:38:40;16.90;97.40
14755;DHT22;7469;50.906;6.952;2022-09-28T12:41:33;16.80;97.70
14755;DHT22;7469;50.906;6.952;2022-09-28T12:44:24;16.70;98.00
14755;DHT22;7469;50.906;6.952;2022-09-28T12:47:11;16.50;98.40
14755;DHT22;7469;50.906;6.952;2022-09-28T12:49:53;16.30;98.80
14755;DHT22;7469;50.906;6.952;2022-09-28T12:52:54;16.20;99.30
14755;DHT22;7469;50.906;6.952;2022-09-28T12:55:50;16.00;99.70
14755;DHT22;7469;50.906;6.952;2022-09-28T12:58:41;15.90;99.90
14755;DHT22;7469;50.906;6.952;2022-09-28T13:01:28;15.80;99.90
14755;DHT22;7469;50.906;6.952;2022-09-28T13:04:08;15.70;99.90
14755;DHT22;7469;50.906;6.952;2022-09-28T13:06:47;15.70;99.90
14755;DHT22;7469;50.906;6.952;2022-09-28T13:09:20;15.70;99.90
14755;DHT22;7469;50.906;6.952;2022-09-28T13:12:02;15.70;99.90
14755;DHT22;7469;50.906;6.952;2022-09-28T13:14:54;15.70;99.90
14755;DHT22;7469;50.906;6.952;2022-09-28T13:17:41;15.70;99.90
14755;DHT22;7469;50.906;6.952;2022-09-28T13:20:33;15.80;99.90
14755;DHT22;7469;50.906;6.952;2022-09-28T13:23:11;15.90;99.90
14755;DHT22;7469;50.906;6.952;2022-09-28T13:25:46;15.90;99.90
14755;DHT22;7469;50.906;6.952;2022-09-28T13:28:18;16.00;99.90
14755;DHT22;7469;50.906;6.952;2022-09-28T13:30:54;16.10;99.90
14755;DHT22;7469;50.906;6.952;2022-09-28T13:33:32;16.20;99.90
14755;DHT22;7469;50.906;6.952;2022-09-28T13:36:03;16.30;99.90
14755;DHT22;7469;50.906;6.952;2022-09-28T13:38:52;16.50;99.90
14755;DHT22;7469;50.906;6.952;2022-09-28T13:41:30;16.60;99.90
14755;DHT22;7469;50.906;6.952;2022-09-28T13:44:40;16.60;99.90
14755;DHT22;7469;50.906;6.952;2022-09-28T13:47:20;16.60;99.90
14755;DHT22;7469;50.906;6.952;2022-09-28T13:50:02;16.60;99.90
14755;DHT22;7469;50.906;6.952;2022-09-28T13:52:44;16.50;99.90
14755;DHT22;7469;50.906;6.952;2022-09-28T13:55:23;16.40;99.90
14755;DHT22;7469;50.906;6.952;2022-09-28T13:57:55;16.30;99.90
14755;DHT22;7469;50.906;6.952;2022-09-28T14:00:28;16.30;99.90
14755;DHT22;7469;50.906;6.952;2022-09-28T14:03:03;16.20;99.90
14755;DHT22;7469;50.906;6.952;2022-09-28T14:05:51;16.30;99.90
14755;DHT22;7469;50.906;6.952;2022-09-28T14:08:27;16.30;99.90
14755;DHT22;7469;50.906;6.952;2022-09-28T14:14:05;16.50;99.90
14755;DHT22;7469;50.906;6.952;2022-09-28T14:16:51;16.50;99.90
14755;DHT22;7469;50.906;6.952;2022-09-28T14:19:28;16.60;99.90
14755;DHT22;7469;50.906;6.952;2022-09-28T14:22:05;16.60;99.90
14755;DHT22;7469;50.906;6.952;2022-09-28T14:27:42;16.50;99.90
14755;DHT22;7469;50.906;6.952;2022-09-28T14:30:23;16.50;99.90
14755;DHT22;7469;50.906;6.952;2022-09-28T14:32:54;16.40;99.90
14755;DHT22;7469;50.906;6.952;2022-09-28T14:35:28;16.30;99.90
14755;DHT22;7469;50.906;6.952;2022-09-28T14:38:01;16.20;99.90
14755;DHT22;7469;50.906;6.952;2022-09-28T14:41:02;16.10;99.90
14755;DHT22;7469;50.906;6.952;2022-09-28T14:43:57;16.00;99.90
14755;DHT22;7469;50.906;6.952;2022-09-28T14:46:32;16.00;99.90
14755;DHT22;7469;50.906;6.952;2022-09-28T14:49:02;16.00;99.90
14755;DHT22;7469;50.906;6.952;2022-09-28T14:54:44;15.80;99.90
14755;DHT22;7469;50.906;6.952;2022-09-28T14:57:18;15.70;99.90
14755;DHT22;7469;50.906;6.952;2022-09-28T14:59:46;15.60;99.90
14755;DHT22;7469;50.906;6.952;2022-09-28T15:02:29;15.60;99.90
14755;DHT22;7469;50.906;6.952;2022-09-28T15:05:07;15.50;99.90
14755;DHT22;7469;50.906;6.952;2022-09-28T15:07:44;15.40;99.90
14755;DHT22;7469;50.906;6.952;2022-09-28T15:10:20;15.30;99.90
14755;DHT22;7469;50.906;6.952;2022-09-28T15:12:54;15.30;99.90
14755;DHT22;7469;50.906;6.952;2022-09-28T15:15:34;15.30;99.90
14755;DHT22;7469;50.906;6.952;2022-09-28T15:18:15;15.20;99.90
14755;DHT22;7469;50.906;6.952;2022-09-28T15:20:48;15.20;99.90
14755;DHT22;7469;50.906;6.952;2022-09-28T15:23:25;15.10;99.90
14755;DHT22;7469;50.906;6.952;2022-09-28T15:25:54;15.00;99.90
14755;DHT22;7469;50.906;6.952;2022-09-28T15:28:23;14.90;99.90
14755;DHT22;7469;50.906;6.952;2022-09-28T15:30:58;14.80;99.90
14755;DHT22;7469;50.906;6.952;2022-09-28T15:33:29;14.80;99.90
14755;DHT22;7469;50.906;6.952;2022-09-28T15:36:18;14.70;99.90
14755;DHT22;7469;50.906;6.952;2022-09-28T15:38:52;14.70;99.90
14755;DHT22;7469;50.906;6.952;2022-09-28T15:41:23;14.70;99.90
14755;DHT22;7469;50.906;6.952;2022-09-28T15:44:19;14.70;99.90
14755;DHT22;7469;50.906;6.952;2022-09-28T15:47:03;14.70;99.90
14755;DHT22;7469;50.906;6.952;2022-09-28T15:49:37;14.70;99.90
14755;DHT22;7469;50.906;6.952;2022-09-28T15:52:23;14.70;99.90
14755;DHT22;7469;50.906;6.952;2022-09-28T15:54:52;14.70;99.90
14755;DHT22;7469;50.906;6.952;2022-09-28T15:57:33;14.60;99.90
14755;DHT22;7469;50.906;6.952;2022-09-28T16:00:04;14.60;99.90
14755;DHT22;7469;50.906;6.952;2022-09-28T16:02:34;14.60;99.90
14755;DHT22;7469;50.906;6.952;2022-09-28T16:05:35;14.60;99.90
14755;DHT22;7469;50.906;6.952;2022-09-28T16:08:10;14.60;99.90
14755;DHT22;7469;50.906;6.952;2022-09-28T16:10:52;14.50;99.90
14755;DHT22;7469;50.906;6.952;2022-09-28T16:13:22;14.40;99.90
14755;DHT22;7469;50.906;6.952;2022-09-28T16:15:56;14.30;99.90
14755;DHT22;7469;50.906;6.952;2022-09-28T16:18:26;14.20;99.90
14755;DHT22;7469;50.906;6.952;2022-09-28T16:21:00;14.10;99.90
14755;DHT22;7469;50.906;6.952;2022-09-28T16:23:49;14.00;99.90
14755;DHT22;7469;50.906;6.952;2022-09-28T16:26:28;13.90;99.90
14755;DHT22;7469;50.906;6.952;2022-09-28T16:28:59;13.90;99.90
14755;DHT22;7469;50.906;6.952;2022-09-28T16:31:30;13.80;99.90
14755;DHT22;7469;50.906;6.952;2022-09-28T16:34:08;13.70;99.90
14755;DHT22;7469;50.906;6.952;2022-09-28T16:36:43;13.60;99.90
14755;DHT22;7469;50.906;6.952;2022-09-28T16:39:12;13.60;99.90
14755;DHT22;7469;50.906;6.952;2022-09-28T16:41:45;13.50;99.90
14755;DHT22;7469;50.906;6.952;2022-09-28T16:44:18;13.40;99.90
14755;DHT22;7469;50.906;6.952;2022-09-28T16:46:50;13.40;99.90